Terminal Aerodrome Forecast
Issued by NWS

Home | Current Version | Previous Version | Text Only | Print | Product List | Glossary On
Versions: 1 2 3 4 5 6 7 8 9 10 11 12 13 14 15 16 17 18 19 20 21 22 23 24 25 26
244
FTUS41 KILN 291724
TAFLUK
TAF
KLUK 291724Z 2918/3018 24004KT P6SM VCSH BKN035
     FM292200 24005KT P6SM VCTS BKN035CB
     FM300300 00000KT P6SM VCSH BKN040
     FM300800 00000KT 3SM BR SCT035 BKN250
      TEMPO 3008/3012 1SM BR SCT002
     FM301300 24006KT P6SM SCT035
     FM301700 24006KT P6SM VCTS BKN035CB=

USA.gov is the U.S. government's official web portal to all federal, state and local government web resources and services.